Terminal Aerodrome Forecast
Issued by NWS Blacksburg, VA

Current Version | Previous Version | Text Only | Print | Product List | Glossary Off
Versions: 1 2 3 4 5 6 7 8 9 10 11 12 13

000
FTUS41 KRNK 220533
TAFBLF
TAF
KBLF 220533Z 2206/2306 27005KT P6SM BKN004 OVC007
      TEMPO 2209/2213 5SM BR OVC008
     FM221400 31008KT P6SM SKC=

USA.gov is the U.S. government's official web portal to all federal, state and local government web resources and services.